createdAt,value
2022-10-25T03:55:42.231Z,100358.00
2022-10-25T03:59:05.681Z,100368.33
2022-10-25T04:02:29.279Z,100363.45
2022-10-25T04:05:52.723Z,100364.89
2022-10-25T04:09:16.473Z,100360.35
2022-10-25T04:12:39.950Z,100358.77
2022-10-25T04:16:08.231Z,100366.15
2022-10-25T04:19:32.088Z,100371.05
2022-10-25T04:22:57.126Z,100367.91
2022-10-25T04:26:20.737Z,100363.23
2022-10-25T04:29:43.913Z,100363.95
2022-10-25T04:33:07.437Z,100363.09
2022-10-25T04:36:31.225Z,100361.73
2022-10-25T04:39:54.732Z,100361.21
2022-10-25T04:43:17.959Z,100360.55
2022-10-25T04:46:45.068Z,100364.42
2022-10-25T04:50:11.198Z,100368.46
2022-10-25T04:53:34.598Z,100367.44
2022-10-25T04:56:57.870Z,100366.76
2022-10-25T05:00:21.613Z,100365.74
2022-10-25T05:03:45.399Z,100360.00
2022-10-25T05:07:08.588Z,100356.56
2022-10-25T05:10:32.108Z,100364.98
2022-10-25T05:13:55.254Z,100366.08
2022-10-25T05:17:18.783Z,100363.46
2022-10-25T05:20:42.817Z,100370.46
2022-10-25T05:24:06.811Z,100382.37
2022-10-25T05:27:29.995Z,100382.40
2022-10-25T05:30:53.184Z,100386.26
2022-10-25T05:34:16.372Z,100390.66
2022-10-25T05:37:39.818Z,100393.14
2022-10-25T05:41:03.138Z,100395.23
2022-10-25T05:44:26.397Z,100394.39
2022-10-25T05:47:49.631Z,100395.64
2022-10-25T05:51:32.658Z,100400.58
2022-10-25T05:54:56.768Z,100400.78
2022-10-25T05:58:19.980Z,100402.73
2022-10-25T06:01:45.181Z,100404.54
2022-10-25T06:05:09.176Z,100406.50
2022-10-25T06:08:33.320Z,100412.11
2022-10-25T06:11:56.467Z,100412.52
2022-10-25T06:15:19.594Z,100420.63
2022-10-25T06:18:42.906Z,100429.60
2022-10-25T06:22:06.262Z,100427.89
2022-10-25T06:25:29.424Z,100434.27
2022-10-25T06:28:54.579Z,100437.15
2022-10-25T06:32:18.325Z,100442.73
2022-10-25T06:35:41.448Z,100444.11
2022-10-25T06:39:06.722Z,100447.85
2022-10-25T06:42:30.379Z,100450.43
2022-10-25T06:45:55.267Z,100453.52
2022-10-25T06:49:18.693Z,100460.94
2022-10-25T06:52:41.861Z,100467.43
2022-10-25T06:56:09.354Z,100468.31
2022-10-25T06:59:36.660Z,100476.91
2022-10-25T07:03:00.454Z,100478.65
2022-10-25T07:06:25.561Z,100479.17
2022-10-25T07:09:48.890Z,100477.25
2022-10-25T07:13:12.550Z,100477.63
2022-10-25T07:16:36.322Z,100483.63
2022-10-25T07:19:59.776Z,100481.90
2022-10-25T07:23:23.080Z,100482.26
2022-10-25T07:26:46.312Z,100480.35
2022-10-25T07:30:11.529Z,100483.89
2022-10-25T07:33:35.050Z,100480.39
2022-10-25T07:36:58.338Z,100484.61
2022-10-25T07:40:21.489Z,100480.08
2022-10-25T07:43:44.670Z,100484.16
2022-10-25T07:47:07.804Z,100485.93
2022-10-25T07:50:31.147Z,100485.23
2022-10-25T07:53:54.594Z,100488.58
2022-10-25T07:57:18.138Z,100492.09
2022-10-25T08:00:41.619Z,100492.09
2022-10-25T08:04:04.899Z,100495.42
2022-10-25T08:07:28.074Z,100494.55
2022-10-25T08:10:52.526Z,100492.80
2022-10-25T08:14:16.630Z,100495.23
2022-10-25T08:17:40.143Z,100496.08
2022-10-25T08:21:06.587Z,100491.62
2022-10-25T08:24:29.893Z,100493.51
2022-10-25T08:27:53.588Z,100499.14
2022-10-25T08:31:16.787Z,100499.81
2022-10-25T08:34:40.259Z,100504.88
2022-10-25T08:38:04.476Z,100501.65
2022-10-25T08:41:39.910Z,100499.13
2022-10-25T08:45:10.059Z,100501.20
2022-10-25T08:48:37.094Z,100503.10
2022-10-25T08:52:05.012Z,100499.40
2022-10-25T08:55:32.588Z,100502.71
2022-10-25T08:58:59.471Z,100503.86
2022-10-25T09:02:33.402Z,100501.29
2022-10-25T09:06:08.578Z,100505.58
2022-10-25T09:09:42.305Z,100505.84
2022-10-25T09:13:12.813Z,100509.96
2022-10-25T09:16:44.561Z,100510.06
2022-10-25T09:20:18.423Z,100510.92
2022-10-25T09:23:43.988Z,100517.09
2022-10-25T09:27:13.685Z,100520.73
2022-10-25T09:30:42.582Z,100522.95
2022-10-25T09:34:09.193Z,100520.62
2022-10-25T09:37:38.601Z,100518.68
2022-10-25T09:41:05.773Z,100521.70
2022-10-25T09:44:40.130Z,100525.41
2022-10-25T09:48:10.324Z,100526.66
2022-10-25T09:51:39.936Z,100532.66
2022-10-25T09:55:14.394Z,100531.43
2022-10-25T09:58:40.646Z,100530.44
2022-10-25T10:02:04.558Z,100532.59
2022-10-25T10:05:28.798Z,100538.25
2022-10-25T10:08:56.760Z,100541.45
2022-10-25T10:12:27.620Z,100534.41
2022-10-25T10:15:54.868Z,100536.91
2022-10-25T10:19:20.430Z,100534.11
2022-10-25T10:26:33.911Z,100538.16
2022-10-25T10:29:59.994Z,100544.54
2022-10-25T10:33:24.957Z,100544.00
2022-10-25T10:37:00.251Z,100543.11
2022-10-25T10:40:25.384Z,100540.81
2022-10-25T10:43:48.640Z,100543.11
2022-10-25T10:47:20.705Z,100541.34
2022-10-25T10:50:49.307Z,100548.92
2022-10-25T10:54:23.048Z,100548.02
2022-10-25T10:57:46.491Z,100545.52
2022-10-25T11:01:12.202Z,100549.37
2022-10-25T11:04:48.236Z,100549.75
2022-10-25T11:08:19.035Z,100549.77
2022-10-25T11:11:42.595Z,100551.22
2022-10-25T11:15:11.833Z,100547.19
2022-10-25T11:18:49.363Z,100551.75
2022-10-25T11:22:40.074Z,100553.16
2022-10-25T11:26:12.759Z,100554.36
2022-10-25T11:29:53.588Z,100551.00
2022-10-25T11:33:26.941Z,100553.92
2022-10-25T11:37:05.335Z,100557.73
2022-10-25T11:40:30.592Z,100564.67
2022-10-25T11:44:08.988Z,100562.79
2022-10-25T11:47:43.446Z,100563.05
2022-10-25T11:51:15.005Z,100565.66
2022-10-25T11:54:44.895Z,100563.44
2022-10-25T11:58:23.455Z,100562.77
2022-10-25T12:02:11.350Z,100565.09
2022-10-25T12:05:43.899Z,100565.10
2022-10-25T12:09:19.806Z,100567.17
2022-10-25T12:12:49.245Z,100571.00
2022-10-25T12:16:14.096Z,100563.36
2022-10-25T12:19:44.607Z,100563.51
2022-10-25T12:23:13.829Z,100561.70
2022-10-25T12:26:40.926Z,100560.27
2022-10-25T12:30:14.340Z,100563.75
2022-10-25T12:33:41.367Z,100565.13
2022-10-25T12:37:11.348Z,100563.27
2022-10-25T12:40:42.039Z,100560.93
2022-10-25T12:44:33.356Z,100565.55
2022-10-25T12:48:11.549Z,100570.10
2022-10-25T12:51:47.706Z,100579.49
2022-10-25T12:55:36.040Z,100584.33
2022-10-25T12:59:08.067Z,100587.92
2022-10-25T13:03:18.552Z,100592.10
2022-10-25T13:06:46.563Z,100587.38
2022-10-25T13:10:17.749Z,100581.93
2022-10-25T13:13:49.368Z,100584.60
2022-10-25T13:17:48.822Z,100590.80
2022-10-25T13:21:14.504Z,100594.05
2022-10-25T13:24:40.679Z,100598.20
2022-10-25T13:28:32.758Z,100599.52
2022-10-25T13:32:10.160Z,100606.27
2022-10-25T13:36:02.052Z,100602.23
2022-10-25T13:39:29.490Z,100602.23
2022-10-25T13:43:02.096Z,100603.66
2022-10-25T13:46:30.292Z,100605.59
2022-10-25T13:49:53.808Z,100610.17
2022-10-25T13:53:23.138Z,100614.76
2022-10-25T13:56:51.549Z,100611.41
2022-10-25T14:00:36.088Z,100619.50
2022-10-25T14:04:19.577Z,100618.27
2022-10-25T14:07:51.065Z,100615.64
2022-10-25T14:11:18.375Z,100618.98
2022-10-25T14:14:52.980Z,100619.86
2022-10-25T14:18:21.228Z,100619.51
2022-10-25T14:21:48.004Z,100622.66
2022-10-25T14:25:22.016Z,100617.23
2022-10-25T14:28:45.238Z,100615.09
2022-10-25T14:32:13.091Z,100616.32
2022-10-25T14:35:47.734Z,100618.09
2022-10-25T14:39:17.492Z,100615.44
2022-10-25T14:42:40.026Z,100622.48
2022-10-25T14:46:13.571Z,100628.45
2022-10-25T14:49:37.757Z,100628.29
2022-10-25T14:53:01.318Z,100624.77
2022-10-25T14:56:29.837Z,100624.60
2022-10-25T15:03:28.938Z,100630.41
2022-10-25T15:06:52.195Z,100630.06
2022-10-25T15:10:38.412Z,100626.00
2022-10-25T15:14:20.101Z,100630.75
2022-10-25T15:17:50.742Z,100632.34
2022-10-25T15:21:16.790Z,100631.98
2022-10-25T15:24:48.079Z,100631.46
2022-10-25T15:28:13.536Z,100633.23
2022-10-25T15:31:43.226Z,100636.40
2022-10-25T15:35:23.617Z,100639.21
2022-10-25T15:39:07.865Z,100646.77
2022-10-25T15:42:30.699Z,100654.81
2022-10-25T15:45:55.044Z,100655.48
2022-10-25T15:49:19.342Z,100656.67
2022-10-25T15:52:43.383Z,100653.29
2022-10-25T15:56:08.822Z,100662.21
2022-10-25T15:59:32.070Z,100666.05
2022-10-25T16:02:55.774Z,100669.50
2022-10-25T16:06:19.821Z,100667.15
2022-10-25T16:09:43.191Z,100668.86
2022-10-25T16:13:10.935Z,100666.00
2022-10-25T16:16:41.496Z,100669.80
2022-10-25T16:20:09.820Z,100673.41
2022-10-25T16:23:33.182Z,100678.94
2022-10-25T16:26:56.356Z,100684.49
2022-10-25T16:30:21.867Z,100686.90
2022-10-25T16:33:45.037Z,100693.87
2022-10-25T16:37:11.378Z,100690.83
2022-10-25T16:40:35.263Z,100689.01
2022-10-25T16:43:59.395Z,100691.56
2022-10-25T16:47:23.347Z,100700.63
2022-10-25T16:50:46.613Z,100703.92
2022-10-25T16:54:11.628Z,100703.36
2022-10-25T16:57:35.155Z,100702.48
2022-10-25T17:00:59.622Z,100701.39
2022-10-25T17:04:23.097Z,100702.23
2022-10-25T17:07:46.577Z,100705.91
2022-10-25T17:11:09.731Z,100704.13
2022-10-25T17:14:33.017Z,100703.05
2022-10-25T17:17:57.491Z,100707.23
2022-10-25T17:21:21.481Z,100717.91
2022-10-25T17:24:44.661Z,100715.44
2022-10-25T17:28:07.927Z,100720.12
2022-10-25T17:31:31.966Z,100723.23
2022-10-25T17:34:55.463Z,100726.50
2022-10-25T17:38:18.730Z,100730.46
2022-10-25T17:41:42.301Z,100733.40
2022-10-25T17:45:07.726Z,100739.32
2022-10-25T17:48:31.488Z,100739.27
2022-10-25T17:51:55.204Z,100739.92
2022-10-25T17:55:18.850Z,100744.45
2022-10-25T17:58:43.608Z,100741.63
2022-10-25T18:02:07.355Z,100744.39
2022-10-25T18:05:31.361Z,100746.70
2022-10-25T18:08:57.209Z,100744.27
2022-10-25T18:12:20.849Z,100751.52
2022-10-25T18:15:48.736Z,100747.19
2022-10-25T18:19:13.959Z,100745.48
2022-10-25T18:22:37.631Z,100750.91
2022-10-25T18:26:01.876Z,100749.88
2022-10-25T18:29:25.300Z,100748.66
2022-10-25T18:32:49.092Z,100751.45
2022-10-25T18:36:17.029Z,100751.61
2022-10-25T18:39:40.607Z,100751.56
2022-10-25T18:43:04.145Z,100752.60
2022-10-25T18:46:31.271Z,100752.23
2022-10-25T18:49:55.163Z,100756.39
2022-10-25T18:53:20.159Z,100761.44
2022-10-25T18:56:45.045Z,100759.84
2022-10-25T19:00:12.823Z,100767.52
2022-10-25T19:03:38.248Z,100767.52
2022-10-25T19:07:03.468Z,100769.61
2022-10-25T19:10:28.448Z,100770.30
2022-10-25T19:13:55.174Z,100771.85
2022-10-25T19:17:19.849Z,100780.39
2022-10-25T19:20:46.528Z,100784.70
2022-10-25T19:24:15.191Z,100792.33
2022-10-25T19:27:39.966Z,100791.69
2022-10-25T19:31:09.119Z,100793.34
2022-10-25T19:34:33.303Z,100793.21
2022-10-25T19:37:57.906Z,100797.30
2022-10-25T19:41:23.172Z,100798.76
2022-10-25T19:44:46.996Z,100796.88
2022-10-25T19:48:10.474Z,100799.70
2022-10-25T19:51:34.564Z,100803.39
2022-10-25T19:54:58.247Z,100801.84
2022-10-25T19:58:21.715Z,100805.19
2022-10-25T20:01:46.880Z,100803.14
2022-10-25T20:08:37.465Z,100808.28
2022-10-25T20:12:00.777Z,100811.65
2022-10-25T20:15:24.406Z,100820.06
2022-10-25T20:18:47.688Z,100821.99
2022-10-25T20:22:10.837Z,100820.46
2022-10-25T20:25:34.297Z,100825.95
2022-10-25T20:28:59.770Z,100825.84
2022-10-25T20:32:23.013Z,100826.09
2022-10-25T20:35:46.216Z,100828.23
2022-10-25T20:39:10.682Z,100834.77
2022-10-25T20:42:34.985Z,100838.32
2022-10-25T20:45:58.196Z,100842.27
2022-10-25T20:49:21.351Z,100842.20
2022-10-25T20:52:52.797Z,100845.11
2022-10-25T20:56:27.961Z,100845.42
2022-10-25T20:59:51.231Z,100842.91
2022-10-25T21:03:15.322Z,100843.54
2022-10-25T21:06:38.806Z,100842.91
2022-10-25T21:10:02.513Z,100850.52
2022-10-25T21:13:26.953Z,100852.55
2022-10-25T21:16:51.091Z,100853.21
2022-10-25T21:20:14.807Z,100854.95
2022-10-25T21:23:37.998Z,100851.96
2022-10-25T21:27:01.247Z,100851.21
2022-10-25T21:30:24.902Z,100851.44
2022-10-25T21:33:50.192Z,100849.08
2022-10-25T21:37:15.022Z,100848.60
2022-10-25T21:40:38.649Z,100849.51
2022-10-25T21:44:02.355Z,100846.77
2022-10-25T21:47:26.198Z,100854.51
2022-10-25T21:50:54.854Z,100855.42
2022-10-25T21:54:18.282Z,100860.55
2022-10-25T21:57:41.837Z,100858.02
2022-10-25T22:01:08.975Z,100858.59
2022-10-25T22:04:33.510Z,100859.16
2022-10-25T22:07:56.854Z,100854.16
2022-10-25T22:11:22.170Z,100851.80
2022-10-25T22:14:45.706Z,100858.52
2022-10-25T22:18:09.305Z,100857.58
2022-10-25T22:21:34.730Z,100857.16
2022-10-25T22:24:58.080Z,100859.16
2022-10-25T22:28:21.440Z,100861.50
2022-10-25T22:31:44.864Z,100859.66
2022-10-25T22:35:09.199Z,100860.97
2022-10-25T22:38:32.615Z,100862.09
2022-10-25T22:41:56.020Z,100859.02
2022-10-25T22:45:19.470Z,100857.70
2022-10-25T22:48:44.176Z,100864.10
